Pitlochry, United Kingdom
Current Conditions -  °F | °C
As of 11:50 AM on Saturday 01 Nov 2014 (Local Time) from EGPN Reporting Station
Few Clouds Few Clouds  
Wind Chill: 54°   Ceiling: Unl
Heat Index: 54°   Visibility: 6mi
Dew Point: 48°   Wind: 13mph
Humidity: 82%   Direction: 230°SW
Pressure: 29.68"   Gusts: NA
Location:  56.71°N, 3.73°W
Report Text: EGPN 011150Z 23011KT 9999 FEW020 12/09 Q1005
Loading
Personal Weather Stations






























Interactive Weather Map
Tropical Storm Tracking
New forecast layout! Learn more

10-Day Weather Forecast

Advertisements
Track Severe Weather on mobile